Terminal Aerodrome Forecast
Issued by NWS

Home | Current Version | Previous Version | Text Only | Print | Product List | Glossary On
Versions: 1 2 3 4 5 6 7 8 9 10 11 12 13 14 15 16 17 18 19 20
000
FTUS44 KLZK 012300 RRA
TAFPBF
TAF
KPBF 012340Z 0200/0224 16006KT P6SM SCT040
     FM020200 VRB03KT P6SM SCT250
     FM021000 17005KT 5SM BR OVC015
     FM021400 18007KT P6SM BKN025 OVC050
     FM021800 19008G16KT P6SM VCTS BKN050CB=

USA.gov is the U.S. government's official web portal to all federal, state and local government web resources and services.